Time;durP1;ratioP1;P1;durP2;ratioP2;P2;SDS_P1;SDS_P2;PMS_P1;PMS_P2;Temp;Humidity;BMP_temperature;BMP_pressure;BME280_temperature;BME280_humidity;BME280_pressure;Samples;Min_cycle;Max_cycle;Signal;HPM_P1;HPM_P2
2022/11/12 00:02:53;;;;;;;8.27;5.90;;;7.30;99.90;;;;;;8313684;28;20525;-71
2022/11/12 00:06:54;;;;;;;7.17;5.00;;;7.20;99.90;;;;;;8316605;28;20272;-71
2022/11/12 00:10:55;;;;;;;10.83;5.80;;;7.10;1.00;;;;;;8311854;28;20199;-71
2022/11/12 00:14:56;;;;;;;9.03;5.40;;;7.10;1.00;;;;;;8314180;28;20171;-70
2022/11/12 00:18:56;;;;;;;9.10;5.90;;;7.10;1.00;;;;;;8315786;28;20317;-70
2022/11/12 00:22:57;;;;;;;13.93;5.83;;;7.10;1.00;;;;;;8315990;28;20209;-70
2022/11/12 00:26:58;;;;;;;9.57;5.87;;;7.10;1.00;;;;;;8316212;28;20220;-70
2022/11/12 00:31:05;;;;;;;7.70;5.27;;;7.10;1.00;;;;;;8312946;28;20225;-71
2022/11/12 00:35:07;;;;;;;10.33;5.70;;;7.10;1.00;;;;;;8312220;28;20238;-71
2022/11/12 00:39:07;;;;;;;8.60;5.53;;;7.20;1.00;;;;;;8312274;28;20197;-71
2022/11/12 00:43:08;;;;;;;8.53;5.80;;;7.20;1.00;;;;;;8314473;28;20181;-70
2022/11/12 00:47:09;;;;;;;9.53;5.30;;;7.20;1.00;;;;;;8315265;28;20173;-70
2022/11/12 00:51:10;;;;;;;9.07;5.23;;;7.20;1.00;;;;;;8314174;28;20217;-70
2022/11/12 00:55:11;;;;;;;8.70;5.93;;;7.20;1.00;;;;;;8314340;28;20205;-70
2022/11/12 00:59:11;;;;;;;6.90;5.10;;;7.30;99.90;;;;;;8311948;28;20220;-70
2022/11/12 01:03:12;;;;;;;10.77;5.40;;;7.30;99.90;;;;;;8310152;28;20214;-70
2022/11/12 01:07:14;;;;;;;7.17;5.10;;;7.30;99.90;;;;;;8311853;28;20206;-70
2022/11/12 01:11:21;;;;;;;7.80;5.00;;;7.40;99.90;;;;;;8305974;28;20222;-71
2022/11/12 01:15:22;;;;;;;8.67;5.03;;;7.30;99.90;;;;;;8312604;28;20189;-70
2022/11/12 01:19:22;;;;;;;10.63;5.33;;;7.30;99.90;;;;;;8314874;28;20187;-71
2022/11/12 01:23:23;;;;;;;7.40;5.43;;;7.30;99.90;;;;;;8314001;28;20182;-72
2022/11/12 01:27:24;;;;;;;9.40;5.73;;;7.30;99.90;;;;;;8313543;28;20237;-71
2022/11/12 01:31:29;;;;;;;8.40;4.97;;;7.40;99.90;;;;;;8307440;28;20416;-71
2022/11/12 01:35:29;;;;;;;7.87;5.70;;;7.30;99.90;;;;;;8313988;28;20495;-70
2022/11/12 01:39:30;;;;;;;7.67;5.23;;;7.30;99.90;;;;;;8316141;28;20245;-70
2022/11/12 01:43:31;;;;;;;10.67;5.50;;;7.20;99.90;;;;;;8321221;28;20214;-71
2022/11/12 01:47:33;;;;;;;8.27;5.30;;;7.20;99.90;;;;;;8323214;28;20375;-70
2022/11/12 01:51:40;;;;;;;9.63;5.83;;;7.30;99.90;;;;;;8315720;28;20242;-70
2022/11/12 01:55:40;;;;;;;9.87;5.53;;;7.20;99.90;;;;;;8321438;28;20550;-71
2022/11/12 01:59:44;;;;;;;7.30;5.47;;;7.20;99.90;;;;;;8319346;28;20317;-70
2022/11/12 02:03:45;;;;;;;11.07;4.90;;;7.10;99.90;;;;;;8319206;28;20182;-71
2022/11/12 02:07:47;;;;;;;9.17;5.63;;;7.10;99.90;;;;;;8317015;28;20202;-71
2022/11/12 02:11:48;;;;;;;7.03;4.90;;;7.10;99.90;;;;;;8320137;28;20285;-71
2022/11/12 02:15:49;;;;;;;7.80;4.97;;;7.10;1.00;;;;;;8320294;28;20175;-71
2022/11/12 02:19:51;;;;;;;8.53;5.53;;;7.00;1.00;;;;;;8317675;28;20190;-70
2022/11/12 02:24:10;;;;;;;8.20;5.53;;;7.00;1.00;;;;;;8319909;28;20269;-70
2022/11/12 02:28:12;;;;;;;7.73;4.93;;;6.90;1.00;;;;;;8320953;28;20209;-70
2022/11/12 02:32:13;;;;;;;6.83;5.03;;;6.90;1.00;;;;;;8316621;28;20301;-70
2022/11/12 02:36:14;;;;;;;7.33;4.93;;;6.80;1.00;;;;;;8317436;28;20178;-70
2022/11/12 02:40:15;;;;;;;7.70;5.00;;;6.80;1.00;;;;;;8318581;28;20192;-71
2022/11/12 02:44:16;;;;;;;5.70;4.03;;;6.60;1.00;;;;;;8317880;28;20323;-70
2022/11/12 02:48:16;;;;;;;6.53;4.67;;;6.50;1.00;;;;;;8319337;28;20269;-71
2022/11/12 02:52:17;;;;;;;6.20;4.60;;;6.40;1.00;;;;;;8315283;28;20202;-70
2022/11/12 02:56:18;;;;;;;7.63;4.20;;;6.30;1.00;;;;;;8317712;28;20186;-71
2022/11/12 03:00:19;;;;;;;6.47;4.70;;;6.30;1.00;;;;;;8320132;28;20203;-70
2022/11/12 03:04:19;;;;;;;8.07;4.70;;;6.20;1.00;;;;;;8313934;28;20635;-70
2022/11/12 03:08:20;;;;;;;6.47;4.90;;;6.20;8.10;;;;;;8317038;28;20240;-70
2022/11/12 03:12:21;;;;;;;6.63;4.17;;;6.20;54.20;;;;;;8315645;28;20225;-70
2022/11/12 03:16:22;;;;;;;5.97;4.37;;;6.20;47.50;;;;;;8308200;28;20175;-70
2022/11/12 03:20:23;;;;;;;7.70;4.27;;;6.20;42.70;;;;;;8316443;28;20224;-70
2022/11/12 03:24:23;;;;;;;5.47;3.83;;;6.10;31.50;;;;;;8308712;28;20186;-71
2022/11/12 03:28:24;;;;;;;5.97;4.03;;;6.10;25.80;;;;;;8316523;28;20185;-72
2022/11/12 03:32:25;;;;;;;6.43;4.40;;;6.00;52.70;;;;;;8317759;28;20304;-71
2022/11/12 03:36:26;;;;;;;6.90;4.27;;;5.90;89.00;;;;;;8320269;28;20189;-70
2022/11/12 03:40:27;;;;;;;7.70;5.10;;;5.90;99.90;;;;;;8317726;28;20175;-70
2022/11/12 03:44:28;;;;;;;7.53;4.43;;;5.90;99.90;;;;;;8317609;28;20193;-70
2022/11/12 03:48:29;;;;;;;9.00;4.33;;;5.90;99.90;;;;;;8315523;28;20186;-70
2022/11/12 03:52:30;;;;;;;10.10;4.73;;;5.90;99.90;;;;;;8319553;28;20206;-70
2022/11/12 03:56:30;;;;;;;7.97;4.93;;;5.90;99.90;;;;;;8316470;28;20216;-70
2022/11/12 04:00:31;;;;;;;7.27;5.17;;;5.90;99.90;;;;;;8322204;28;20190;-69
2022/11/12 04:08:51;;;;;;;8.80;5.20;;;5.90;99.90;;;;;;8315215;28;20294;-69
2022/11/12 04:21:55;;;;;;;7.27;4.33;;;5.90;99.90;;;;;;8315576;28;20265;-70
2022/11/12 04:30:15;;;;;;;8.10;4.70;;;5.60;99.90;;;;;;8317559;28;20271;-69
2022/11/12 04:34:27;;;;;;;6.40;4.87;;;5.60;99.90;;;;;;8317608;28;20186;-70
2022/11/12 04:38:28;;;;;;;5.03;4.20;;;5.50;99.90;;;;;;8314298;28;20214;-70
2022/11/12 04:46:48;;;;;;;6.63;4.20;;;5.30;99.90;;;;;;8317392;28;20259;-70
2022/11/12 04:51:00;;;;;;;7.47;4.67;;;5.20;99.90;;;;;;8314455;28;20208;-70
2022/11/12 04:55:01;;;;;;;6.77;4.47;;;5.30;99.90;;;;;;8315912;28;20185;-70
2022/11/12 04:59:02;;;;;;;5.33;3.87;;;5.30;99.90;;;;;;8312609;28;20289;-70
2022/11/12 05:03:03;;;;;;;6.40;3.93;;;5.30;99.90;;;;;;8316053;28;20228;-70
2022/11/12 05:07:04;;;;;;;5.40;4.13;;;5.20;99.90;;;;;;8313935;28;20281;-69
2022/11/12 05:11:05;;;;;;;7.43;4.37;;;5.10;99.90;;;;;;8313687;28;20202;-70
2022/11/12 05:15:07;;;;;;;12.47;4.37;;;5.00;99.90;;;;;;8319440;28;20201;-70
2022/11/12 05:19:07;;;;;;;6.77;4.23;;;5.10;24.00;;;;;;8320210;28;20236;-69
2022/11/12 05:23:08;;;;;;;5.37;4.20;;;5.10;1.00;;;;;;8317363;28;20191;-70
2022/11/12 05:27:13;;;;;;;7.60;4.30;;;5.20;1.00;;;;;;8320845;28;20213;-69
2022/11/12 05:31:14;;;;;;;8.03;3.93;;;5.10;1.00;;;;;;8322049;28;20218;-69
2022/11/12 05:35:15;;;;;;;8.30;4.00;;;5.00;1.00;;;;;;8324075;28;20183;-70
2022/11/12 05:39:15;;;;;;;6.00;4.07;;;4.90;1.00;;;;;;8320679;28;20190;-69
2022/11/12 05:43:16;;;;;;;6.23;4.27;;;4.80;1.00;;;;;;8323085;28;20190;-70
2022/11/12 05:47:17;;;;;;;6.70;4.97;;;4.70;99.90;;;;;;8321363;28;20252;-70
2022/11/12 05:51:18;;;;;;;6.23;4.50;;;4.70;99.90;;;;;;8317887;28;20222;-70
2022/11/12 05:55:18;;;;;;;9.00;4.67;;;4.90;99.90;;;;;;8321257;28;20183;-69
2022/11/12 05:59:19;;;;;;;6.63;4.23;;;4.90;99.90;;;;;;8309554;28;20202;-70
2022/11/12 06:03:20;;;;;;;8.10;5.13;;;5.00;1.00;;;;;;8321725;28;20197;-70
2022/11/12 06:07:21;;;;;;;6.57;4.37;;;5.10;1.00;;;;;;8321898;28;20209;-69
2022/11/12 06:11:22;;;;;;;6.70;4.33;;;5.20;99.90;;;;;;8316955;28;20218;-70
2022/11/12 06:15:25;;;;;;;6.80;4.97;;;5.30;94.30;;;;;;8322067;28;20186;-70
2022/11/12 06:19:26;;;;;;;6.40;4.23;;;5.20;15.10;;;;;;8319131;28;20225;-70
2022/11/12 06:23:27;;;;;;;7.10;4.17;;;5.20;48.80;;;;;;8318213;28;20186;-70
2022/11/12 06:27:28;;;;;;;5.03;3.43;;;5.20;1.00;;;;;;8322183;28;20266;-70
2022/11/12 06:31:28;;;;;;;7.50;4.70;;;5.10;22.40;;;;;;8320930;28;20331;-69
2022/11/12 06:35:29;;;;;;;8.13;4.30;;;5.00;99.90;;;;;;8322460;28;20186;-71
2022/11/12 06:39:30;;;;;;;8.17;4.63;;;5.00;99.90;;;;;;8319451;28;20182;-70
2022/11/12 06:43:32;;;;;;;8.40;4.80;;;5.00;99.90;;;;;;8317058;28;20777;-70
2022/11/12 06:47:33;;;;;;;9.40;4.87;;;5.10;99.90;;;;;;8317606;28;20284;-69
2022/11/12 06:51:34;;;;;;;8.57;4.97;;;5.20;89.70;;;;;;8323717;28;20270;-70
2022/11/12 06:55:34;;;;;;;6.73;4.30;;;5.30;1.00;;;;;;8319129;28;20183;-70
2022/11/12 06:59:35;;;;;;;7.20;4.60;;;5.40;1.00;;;;;;8318993;28;20302;-70
2022/11/12 07:03:36;;;;;;;5.67;4.33;;;5.60;99.90;;;;;;8321378;28;20229;-70
2022/11/12 07:07:37;;;;;;;5.77;4.10;;;5.70;99.90;;;;;;8322148;28;20207;-70
2022/11/12 07:11:37;;;;;;;5.87;3.97;;;5.80;99.90;;;;;;8317877;28;20345;-70
2022/11/12 07:15:38;;;;;;;7.83;4.47;;;6.00;99.90;;;;;;8312238;28;20270;-69
2022/11/12 07:19:39;;;;;;;7.27;4.20;;;6.00;99.90;;;;;;8317306;28;20210;-70
2022/11/12 07:23:40;;;;;;;7.53;4.27;;;6.10;99.90;;;;;;8317631;28;20547;-69
2022/11/12 07:27:40;;;;;;;4.93;3.40;;;6.20;99.90;;;;;;8321125;28;20942;-70
2022/11/12 07:31:41;;;;;;;6.33;3.87;;;6.30;93.20;;;;;;8316640;28;20252;-69
2022/11/12 07:35:42;;;;;;;6.17;4.33;;;6.30;70.00;;;;;;8317667;28;20280;-69
2022/11/12 07:39:43;;;;;;;5.83;4.47;;;6.40;53.30;;;;;;8316370;28;20566;-69
2022/11/12 07:43:45;;;;;;;7.97;3.83;;;6.60;25.00;;;;;;8316207;28;20190;-70
2022/11/12 07:47:46;;;;;;;8.20;4.10;;;6.80;1.20;;;;;;8325693;28;20214;-69
2022/11/12 07:51:47;;;;;;;6.73;3.80;;;7.10;1.00;;;;;;8317935;28;20249;-69
2022/11/12 07:55:55;;;;;;;6.40;4.13;;;7.30;1.00;;;;;;8316853;28;20190;-69
2022/11/12 07:59:56;;;;;;;4.90;3.87;;;7.40;1.00;;;;;;8324181;28;20221;-70
2022/11/12 08:03:58;;;;;;;5.43;3.90;;;7.40;99.90;;;;;;8319460;28;20183;-69
2022/11/12 08:07:59;;;;;;;7.67;4.10;;;7.40;1.00;;;;;;8317811;28;20216;-70
2022/11/12 08:11:59;;;;;;;6.70;3.53;;;7.40;99.90;;;;;;8317651;28;20214;-70
2022/11/12 08:16:00;;;;;;;6.83;3.73;;;7.40;99.90;;;;;;8316245;28;20182;-69
2022/11/12 08:20:01;;;;;;;4.63;3.57;;;7.50;99.90;;;;;;8314156;28;20329;-70
2022/11/12 08:24:02;;;;;;;6.03;4.20;;;7.50;99.90;;;;;;8319165;28;20205;-70
2022/11/12 08:28:03;;;;;;;5.87;3.87;;;7.60;99.90;;;;;;8314796;28;20225;-70
2022/11/12 08:32:04;;;;;;;5.30;3.53;;;7.60;99.90;;;;;;8317570;28;20303;-70
2022/11/12 08:36:09;;;;;;;6.07;3.70;;;7.70;99.90;;;;;;8315144;28;20205;-70
2022/11/12 08:40:10;;;;;;;5.40;3.60;;;7.80;99.90;;;;;;8313218;28;20183;-69
2022/11/12 08:44:11;;;;;;;5.20;3.60;;;7.90;99.90;;;;;;8313898;28;20183;-69
2022/11/12 08:48:13;;;;;;;5.00;3.53;;;8.00;99.90;;;;;;8313080;28;20201;-69
2022/11/12 08:52:14;;;;;;;6.70;3.37;;;8.20;99.90;;;;;;8323184;28;20214;-69
2022/11/12 08:56:14;;;;;;;5.40;3.07;;;8.50;99.90;;;;;;8323018;28;20189;-69
2022/11/12 09:00:16;;;;;;;5.27;3.23;;;8.80;99.90;;;;;;8322053;28;20224;-69
2022/11/12 09:04:17;;;;;;;4.83;3.50;;;9.00;99.90;;;;;;8325288;28;20502;-71
2022/11/12 09:08:20;;;;;;;5.80;3.10;;;9.30;99.90;;;;;;8319255;28;20198;-69
2022/11/12 09:12:21;;;;;;;4.30;2.97;;;9.50;99.90;;;;;;8320889;28;20226;-70
2022/11/12 09:16:23;;;;;;;4.90;2.87;;;9.70;99.90;;;;;;8320879;28;20188;-70
2022/11/12 09:20:24;;;;;;;4.30;2.97;;;9.80;99.90;;;;;;8319529;28;20292;-69
2022/11/12 09:24:25;;;;;;;4.30;3.00;;;10.00;99.90;;;;;;8320499;28;20324;-69
2022/11/12 09:28:27;;;;;;;4.43;2.77;;;10.10;99.90;;;;;;8322714;28;20188;-69
2022/11/12 09:32:28;;;;;;;5.83;3.00;;;10.20;99.90;;;;;;8318656;28;20215;-68
2022/11/12 09:36:28;;;;;;;4.20;2.80;;;10.50;99.90;;;;;;8320682;28;20254;-69
2022/11/12 09:40:36;;;;;;;4.57;2.83;;;10.70;99.90;;;;;;8318855;28;20207;-69
2022/11/12 09:44:40;;;;;;;4.30;2.70;;;10.90;99.90;;;;;;8320457;28;20193;-71
2022/11/12 09:48:46;;;;;;;4.40;2.90;;;11.10;99.90;;;;;;8319752;28;20312;-69
2022/11/12 09:52:50;;;;;;;4.10;2.77;;;11.40;99.90;;;;;;8319454;28;20186;-69
2022/11/12 09:56:52;;;;;;;5.33;3.00;;;11.50;99.90;;;;;;8309388;28;20212;-68
2022/11/12 10:01:16;;;;;;;4.87;2.50;;;11.50;58.40;;;;;;8318158;28;20218;-69
2022/11/12 10:05:26;;;;;;;5.47;2.80;;;11.40;75.80;;;;;;8317029;28;20197;-69
2022/11/12 10:09:59;;;;;;;5.30;2.93;;;11.40;73.10;;;;;;8318051;28;20229;-68
2022/11/12 10:14:40;;;;;;;2.97;2.33;;;11.60;68.70;;;;;;8319076;28;20244;-68
2022/11/12 10:18:44;;;;;;;5.20;2.77;;;11.60;60.80;;;;;;8301547;28;20186;-69
2022/11/12 10:22:45;;;;;;;5.73;3.07;;;11.70;68.60;;;;;;8297532;28;20190;-70
2022/11/12 10:26:47;;;;;;;5.33;2.60;;;11.80;57.20;;;;;;8318369;28;20183;-68
2022/11/12 10:30:48;;;;;;;6.80;2.73;;;11.70;67.60;;;;;;8319553;28;20225;-69
2022/11/12 10:34:49;;;;;;;4.40;2.73;;;11.60;76.70;;;;;;8318095;28;20189;-69
2022/11/12 10:38:53;;;;;;;6.63;3.00;;;11.60;83.70;;;;;;8320223;28;20463;-68
2022/11/12 10:43:01;;;;;;;4.57;3.20;;;11.70;89.60;;;;;;8318024;28;20186;-70
2022/11/12 10:47:23;;;;;;;6.03;3.20;;;11.70;72.30;;;;;;8314159;28;20193;-68
2022/11/12 10:51:33;;;;;;;4.10;2.63;;;11.70;85.10;;;;;;8307201;28;20205;-69
2022/11/12 10:55:36;;;;;;;4.10;2.77;;;11.80;70.00;;;;;;8315976;28;20187;-69
2022/11/12 10:59:37;;;;;;;4.10;2.63;;;11.90;81.50;;;;;;8316876;28;20218;-68
2022/11/12 11:03:52;;;;;;;3.80;2.70;;;12.00;98.80;;;;;;8318256;28;20233;-68
2022/11/12 11:07:53;;;;;;;3.97;2.30;;;12.00;91.40;;;;;;8317225;28;20210;-69
2022/11/12 11:11:54;;;;;;;3.60;2.10;;;12.10;85.60;;;;;;8313800;28;20213;-67
2022/11/12 11:16:04;;;;;;;5.13;2.57;;;12.20;72.50;;;;;;8312106;28;20298;-68
2022/11/12 11:20:21;;;;;;;3.63;2.60;;;12.30;87.50;;;;;;8310749;28;20183;-68
2022/11/12 11:25:10;;;;;;;4.97;2.23;;;12.40;82.20;;;;;;8314285;28;20191;-68
2022/11/12 11:29:41;;;;;;;6.20;2.63;;;12.60;70.10;;;;;;8316002;28;20310;-68
2022/11/12 11:33:51;;;;;;;3.80;2.50;;;12.70;52.90;;;;;;8314761;28;20191;-68
2022/11/12 11:38:23;;;;;;;4.03;2.40;;;12.70;56.30;;;;;;8316004;28;20187;-68
2022/11/12 11:42:42;;;;;;;3.43;2.00;;;12.70;25.30;;;;;;8318382;28;20190;-68
2022/11/12 11:46:43;;;;;;;3.30;1.83;;;12.80;29.00;;;;;;8307315;28;20194;-68
2022/11/12 11:51:06;;;;;;;5.30;2.07;;;12.80;28.50;;;;;;8316101;28;20214;-68
2022/11/12 11:55:22;;;;;;;4.50;2.60;;;12.80;29.80;;;;;;8318552;28;20188;-69
2022/11/12 11:59:50;;;;;;;4.00;2.33;;;12.90;24.50;;;;;;8313968;28;20465;-69
2022/11/12 12:04:25;;;;;;;3.73;2.00;;;12.90;36.20;;;;;;8318433;28;20199;-69
2022/11/12 12:08:50;;;;;;;3.40;1.70;;;12.90;39.90;;;;;;8314857;28;20206;-68
2022/11/12 12:13:10;;;;;;;4.40;2.50;;;13.00;27.70;;;;;;8315078;28;20321;-69
2022/11/12 12:17:56;;;;;;;5.03;3.00;;;13.00;50.60;;;;;;8314285;28;20450;-68
2022/11/12 12:22:00;;;;;;;5.67;2.20;;;13.10;31.80;;;;;;8314140;28;20193;-69
2022/11/12 12:26:06;;;;;;;5.50;2.70;;;13.10;38.50;;;;;;8314883;28;20513;-69
2022/11/12 12:30:19;;;;;;;4.43;2.40;;;13.10;49.80;;;;;;8311050;28;20434;-68
2022/11/12 12:34:23;;;;;;;3.30;2.23;;;13.10;44.30;;;;;;8315571;28;20185;-69
2022/11/12 12:38:52;;;;;;;5.30;3.33;;;13.10;41.60;;;;;;8314178;28;20182;-69
2022/11/12 12:43:00;;;;;;;4.87;2.70;;;13.10;37.50;;;;;;8314137;28;20190;-67
2022/11/12 12:47:02;;;;;;;4.73;2.13;;;13.00;38.10;;;;;;8314920;28;20183;-68
2022/11/12 12:51:03;;;;;;;5.57;2.17;;;13.00;22.90;;;;;;8314170;28;20210;-68
2022/11/12 12:55:04;;;;;;;4.87;2.40;;;13.00;29.30;;;;;;8313175;28;20463;-69
2022/11/12 12:59:26;;;;;;;3.50;2.30;;;12.90;32.30;;;;;;8307866;28;20278;-69
2022/11/12 13:03:42;;;;;;;4.47;2.20;;;12.90;90.20;;;;;;8313953;28;20321;-69
2022/11/12 13:07:48;;;;;;;3.30;2.50;;;12.90;53.20;;;;;;8306347;28;20270;-68
2022/11/12 13:16:06;;;;;;;7.80;3.00;;;12.80;68.20;;;;;;8312743;28;20171;-69
2022/11/12 13:20:07;;;;;;;4.73;2.77;;;12.70;83.10;;;;;;8315960;28;20179;-68
2022/11/12 13:24:11;;;;;;;4.80;2.53;;;12.70;81.70;;;;;;8311373;28;20222;-69
2022/11/12 13:28:13;;;;;;;8.10;4.10;;;12.70;92.90;;;;;;8313619;28;20187;-68
2022/11/12 13:32:34;;;;;;;7.17;4.67;;;12.70;80.50;;;;;;8316547;28;20237;-69
2022/11/12 13:36:35;;;;;;;6.97;3.70;;;12.70;80.10;;;;;;8317742;28;20604;-68
2022/11/12 13:41:01;;;;;;;5.57;3.67;;;12.70;99.90;;;;;;8319453;28;20219;-69
2022/11/12 13:45:04;;;;;;;5.90;2.80;;;12.60;97.70;;;;;;8315533;28;20202;-68
2022/11/12 13:49:11;;;;;;;5.43;3.00;;;12.60;92.90;;;;;;8316451;28;20186;-69
2022/11/12 13:53:19;;;;;;;15.63;9.10;;;12.60;99.90;;;;;;8319053;28;20178;-69
2022/11/12 13:57:22;;;;;;;17.20;9.97;;;12.50;92.90;;;;;;8320077;28;20198;-69
2022/11/12 14:01:23;;;;;;;24.23;12.60;;;12.50;95.40;;;;;;8320332;28;20298;-69
2022/11/12 14:05:27;;;;;;;23.57;13.03;;;12.40;99.70;;;;;;8321013;28;20179;-69
2022/11/12 14:09:31;;;;;;;30.80;16.50;;;12.40;99.90;;;;;;8320957;28;20268;-69
2022/11/12 14:13:42;;;;;;;21.10;11.87;;;12.20;99.90;;;;;;8316425;28;20191;-69
2022/11/12 14:18:12;;;;;;;35.37;18.07;;;12.00;99.90;;;;;;8320831;28;20178;-69
2022/11/12 14:22:18;;;;;;;10.67;6.97;;;11.90;99.90;;;;;;8310475;28;20217;-68
2022/11/12 14:26:37;;;;;;;44.40;24.53;;;11.80;99.90;;;;;;8315547;28;20233;-69
2022/11/12 14:30:43;;;;;;;57.33;31.70;;;11.70;99.90;;;;;;8319122;28;20211;-69
2022/11/12 14:34:44;;;;;;;88.90;42.90;;;11.60;99.90;;;;;;8319772;28;20270;-69
2022/11/12 14:38:56;;;;;;;39.43;20.93;;;11.50;99.90;;;;;;8317089;28;20250;-69
2022/11/12 14:42:57;;;;;;;28.97;15.83;;;11.30;99.90;;;;;;8305885;28;20238;-70
2022/11/12 14:46:58;;;;;;;18.40;10.53;;;11.10;99.90;;;;;;8317413;28;20189;-70
2022/11/12 14:51:04;;;;;;;10.97;7.17;;;10.80;99.90;;;;;;8315319;28;20505;-70
2022/11/12 14:55:12;;;;;;;10.43;5.50;;;10.40;99.90;;;;;;8314453;28;20185;-70
2022/11/12 14:59:15;;;;;;;8.43;5.00;;;10.10;99.90;;;;;;8312865;28;20288;-70
2022/11/12 15:03:22;;;;;;;5.63;4.00;;;9.70;99.90;;;;;;8314270;28;20201;-70
2022/11/12 15:07:32;;;;;;;5.23;3.77;;;9.40;99.90;;;;;;8311609;28;20201;-70
2022/11/12 15:11:46;;;;;;;63.67;32.57;;;9.10;1.00;;;;;;8315100;28;20209;-70
2022/11/12 15:16:06;;;;;;;52.40;28.37;;;8.90;1.00;;;;;;8314077;28;20177;-70
2022/11/12 15:20:15;;;;;;;27.07;15.13;;;8.70;1.00;;;;;;8327484;28;20253;-70
2022/11/12 15:24:34;;;;;;;17.17;9.20;;;8.40;1.00;;;;;;8317187;28;20250;-71
2022/11/12 15:28:35;;;;;;;10.17;6.53;;;8.10;17.90;;;;;;8304128;28;20187;-70
2022/11/12 15:32:36;;;;;;;6.93;5.23;;;7.90;99.90;;;;;;8306523;28;20291;-70
2022/11/12 15:36:40;;;;;;;7.47;5.20;;;7.60;99.90;;;;;;8316945;28;20186;-70
2022/11/12 15:40:44;;;;;;;9.37;5.77;;;7.40;99.90;;;;;;8313625;28;20202;-71
2022/11/12 15:44:46;;;;;;;8.87;5.83;;;7.20;99.90;;;;;;8316292;28;20197;-69
2022/11/12 15:48:47;;;;;;;10.47;6.53;;;7.00;1.00;;;;;;8326399;28;20221;-70
2022/11/12 15:52:48;;;;;;;8.20;5.73;;;6.80;1.00;;;;;;8312936;28;20210;-71
2022/11/12 15:56:50;;;;;;;9.87;5.73;;;6.70;99.90;;;;;;8312996;28;20183;-70
2022/11/12 16:00:51;;;;;;;8.63;6.07;;;6.50;99.90;;;;;;8314466;28;20213;-70
2022/11/12 16:04:52;;;;;;;10.50;5.80;;;6.30;99.90;;;;;;8319979;28;20187;-71
2022/11/12 16:08:53;;;;;;;10.93;6.60;;;6.20;99.90;;;;;;8312750;28;20221;-71
2022/11/12 16:12:57;;;;;;;10.40;6.17;;;6.00;1.00;;;;;;8314473;28;20293;-70
2022/11/12 16:16:58;;;;;;;9.77;6.20;;;5.90;99.90;;;;;;8312760;28;20179;-70
2022/11/12 16:20:59;;;;;;;10.37;6.10;;;5.80;1.00;;;;;;8314204;28;20190;-72
2022/11/12 16:25:00;;;;;;;7.67;5.90;;;5.70;99.90;;;;;;8314467;28;20187;-70
2022/11/12 16:29:02;;;;;;;9.20;6.00;;;5.50;94.10;;;;;;8315388;28;20280;-70
2022/11/12 16:33:02;;;;;;;10.23;6.87;;;5.40;1.00;;;;;;8313789;28;20229;-70
2022/11/12 16:37:03;;;;;;;17.17;10.20;;;5.30;99.90;;;;;;8311853;28;20186;-71
2022/11/12 16:41:05;;;;;;;26.30;13.97;;;5.20;21.20;;;;;;8307969;28;20187;-70
2022/11/12 16:45:06;;;;;;;24.60;14.13;;;5.20;99.90;;;;;;8312109;28;20193;-70
2022/11/12 16:49:14;;;;;;;24.60;14.43;;;5.10;99.90;;;;;;8313727;28;20186;-70
2022/11/12 16:53:15;;;;;;;18.30;12.30;;;5.00;65.80;;;;;;8315969;28;20186;-70
2022/11/12 16:57:16;;;;;;;13.70;10.13;;;4.80;99.90;;;;;;8314114;28;20210;-70
2022/11/12 17:01:22;;;;;;;11.17;7.17;;;4.70;99.90;;;;;;8317031;28;20216;-70
2022/11/12 17:05:24;;;;;;;10.07;5.70;;;4.50;73.90;;;;;;8306643;28;20263;-71
2022/11/12 17:09:26;;;;;;;8.07;5.43;;;4.40;51.50;;;;;;8315896;28;20214;-70
2022/11/12 17:13:27;;;;;;;6.97;5.47;;;4.30;99.90;;;;;;8313907;28;20273;-70
2022/11/12 17:17:27;;;;;;;8.73;6.10;;;4.20;4.70;;;;;;8319050;28;20209;-70
2022/11/12 17:21:29;;;;;;;24.03;11.67;;;4.10;99.90;;;;;;8311901;28;20186;-69
2022/11/12 17:25:30;;;;;;;29.60;17.37;;;4.00;99.90;;;;;;8322873;28;20274;-69
2022/11/12 17:29:30;;;;;;;24.30;13.93;;;3.90;1.00;;;;;;8321668;28;20213;-70
2022/11/12 17:33:31;;;;;;;18.27;10.53;;;3.80;1.00;;;;;;8321262;28;20483;-70
2022/11/12 17:37:32;;;;;;;34.70;15.67;;;3.80;1.00;;;;;;8321511;28;20208;-69
2022/11/12 17:41:33;;;;;;;28.07;13.07;;;3.70;99.90;;;;;;8319101;28;20193;-70
2022/11/12 17:45:34;;;;;;;17.63;10.80;;;3.70;99.90;;;;;;8320893;28;20239;-69
2022/11/12 17:49:35;;;;;;;18.40;10.60;;;3.60;99.90;;;;;;8321212;28;20197;-69
2022/11/12 17:53:36;;;;;;;31.37;15.57;;;3.50;99.90;;;;;;8320058;28;20218;-70
2022/11/12 17:57:37;;;;;;;29.47;15.43;;;3.40;99.90;;;;;;8318320;28;20647;-69
2022/11/12 18:01:37;;;;;;;22.73;14.80;;;3.40;99.90;;;;;;8319896;28;20204;-70
2022/11/12 18:05:38;;;;;;;31.40;17.83;;;3.30;99.90;;;;;;8322799;28;20196;-69
2022/11/12 18:09:39;;;;;;;29.93;18.20;;;3.20;99.90;;;;;;8321960;28;20202;-69
2022/11/12 18:13:40;;;;;;;33.57;19.30;;;3.20;99.90;;;;;;8317444;28;20213;-70
2022/11/12 18:17:41;;;;;;;32.93;19.63;;;3.10;99.90;;;;;;8324762;28;20189;-70
2022/11/12 18:21:42;;;;;;;34.30;19.27;;;3.10;99.90;;;;;;8319924;28;20260;-70
2022/11/12 18:25:43;;;;;;;38.73;22.97;;;3.10;99.90;;;;;;8320865;28;20246;-70
2022/11/12 18:29:45;;;;;;;56.23;34.33;;;3.30;99.90;;;;;;8322663;28;20205;-70
2022/11/12 18:33:46;;;;;;;50.37;31.67;;;3.60;99.90;;;;;;8318910;28;20179;-69
2022/11/12 18:37:47;;;;;;;53.23;31.17;;;3.90;99.90;;;;;;8310932;28;20177;-70
2022/11/12 18:41:48;;;;;;;56.20;30.87;;;4.10;99.90;;;;;;8316724;28;20193;-70
2022/11/12 18:45:59;;;;;;;48.20;27.87;;;4.20;99.90;;;;;;8314503;28;20190;-69
2022/11/12 18:50:00;;;;;;;53.37;32.50;;;4.30;99.90;;;;;;8319068;28;20225;-70
2022/11/12 18:54:00;;;;;;;56.47;31.43;;;4.30;99.90;;;;;;8314757;28;20270;-75
2022/11/12 18:58:01;;;;;;;51.33;29.50;;;4.20;99.90;;;;;;8316232;28;20266;-70
2022/11/12 19:02:02;;;;;;;53.17;30.27;;;4.20;99.90;;;;;;8317600;28;20191;-70
2022/11/12 19:06:05;;;;;;;47.60;27.37;;;4.20;99.90;;;;;;8318693;28;20284;-69
2022/11/12 19:10:08;;;;;;;49.27;28.43;;;4.10;99.90;;;;;;8314737;28;20559;-70
2022/11/12 19:14:09;;;;;;;57.57;33.43;;;4.10;99.90;;;;;;8314429;28;20190;-69
2022/11/12 19:18:10;;;;;;;59.70;33.63;;;4.00;99.90;;;;;;8312556;28;20193;-70
2022/11/12 19:22:11;;;;;;;57.03;32.13;;;3.90;99.90;;;;;;8320489;28;20260;-70
2022/11/12 19:26:14;;;;;;;71.37;37.57;;;3.80;99.90;;;;;;8311932;28;20186;-70
2022/11/12 19:30:15;;;;;;;117.43;63.27;;;3.70;99.90;;;;;;8317926;28;20218;-70
2022/11/12 19:34:16;;;;;;;105.27;53.93;;;3.60;99.90;;;;;;8313042;28;20193;-69
2022/11/12 19:38:17;;;;;;;69.43;40.03;;;3.50;99.90;;;;;;8313440;28;20175;-70
2022/11/12 19:42:17;;;;;;;59.10;33.97;;;3.40;99.90;;;;;;8316389;28;20384;-70
2022/11/12 19:46:19;;;;;;;63.20;33.67;;;3.30;99.90;;;;;;8311162;28;20217;-69
2022/11/12 19:50:20;;;;;;;57.07;33.23;;;3.30;99.90;;;;;;8314972;28;20197;-70
2022/11/12 19:54:20;;;;;;;110.47;56.60;;;3.30;99.90;;;;;;8314945;28;20181;-70
2022/11/12 19:58:21;;;;;;;86.37;47.10;;;3.30;99.90;;;;;;8314061;28;20198;-70
2022/11/12 20:02:22;;;;;;;86.90;45.33;;;3.30;99.90;;;;;;8314851;28;20183;-70
2022/11/12 20:06:25;;;;;;;65.37;37.10;;;3.40;99.90;;;;;;8315147;28;20201;-70
2022/11/12 20:10:26;;;;;;;72.20;40.30;;;3.50;99.90;;;;;;8310426;28;20260;-71
2022/11/12 20:14:28;;;;;;;112.67;55.10;;;3.60;99.90;;;;;;8313774;28;20184;-73
2022/11/12 20:18:43;;;;;;;97.63;48.60;;;3.70;99.90;;;;;;8354265;28;20580;-70
2022/11/12 20:22:44;;;;;;;107.33;48.83;;;3.80;99.90;;;;;;8357766;28;20182;-70
2022/11/12 20:26:45;;;;;;;76.13;40.90;;;3.80;99.90;;;;;;8326713;28;20257;-70
2022/11/12 20:30:46;;;;;;;74.13;39.10;;;3.80;99.90;;;;;;8359303;28;20186;-69
2022/11/12 20:34:47;;;;;;;63.77;37.27;;;3.80;99.90;;;;;;8321129;28;20192;-70
2022/11/12 20:38:49;;;;;;;62.90;39.83;;;3.80;99.90;;;;;;8328891;28;20180;-70
2022/11/12 20:42:50;;;;;;;60.87;33.53;;;3.80;99.90;;;;;;8324842;28;20191;-70
2022/11/12 20:46:51;;;;;;;59.07;35.13;;;3.90;99.90;;;;;;8326838;28;20278;-70
2022/11/12 20:51:12;;;;;;;65.20;38.00;;;3.90;99.90;;;;;;8340892;28;20250;-70
2022/11/12 20:55:13;;;;;;;67.10;38.80;;;4.00;99.90;;;;;;8324152;28;20291;-71
2022/11/12 20:59:14;;;;;;;71.73;42.70;;;4.00;99.90;;;;;;8343953;28;20288;-70
2022/11/12 21:03:15;;;;;;;97.70;50.97;;;4.10;99.90;;;;;;8307517;28;20190;-70
2022/11/12 21:07:15;;;;;;;95.00;54.17;;;4.20;99.90;;;;;;8307572;28;20256;-71
2022/11/12 21:11:19;;;;;;;91.27;53.70;;;4.20;99.90;;;;;;8306167;28;20276;-70
2022/11/12 21:15:20;;;;;;;157.50;87.47;;;4.30;99.90;;;;;;8304346;28;20223;-70
2022/11/12 21:19:21;;;;;;;132.40;72.70;;;4.40;99.90;;;;;;8308810;28;20294;-71
2022/11/12 21:23:22;;;;;;;125.27;71.73;;;4.40;99.90;;;;;;8301906;28;20225;-71
2022/11/12 21:27:23;;;;;;;135.97;74.87;;;4.50;99.90;;;;;;8301634;28;20191;-71
2022/11/12 21:31:26;;;;;;;172.27;98.63;;;4.60;99.90;;;;;;8283887;28;20198;-68
2022/11/12 21:35:27;;;;;;;247.80;132.50;;;4.60;99.90;;;;;;8286203;28;20261;-70
2022/11/12 21:39:28;;;;;;;202.77;110.90;;;4.60;99.90;;;;;;8285290;28;20191;-70
2022/11/12 21:43:29;;;;;;;170.63;95.60;;;4.70;99.90;;;;;;8318427;28;20661;-69